sensor_id;sensor_type;location;lat;lon;timestamp;pressure;altitude;pressure_sealevel;temperature;humidity
10706;BME280;5404;42.656;23.336;2024-03-23T00:52:08;94838.38;;;2.53;67.80
10706;BME280;5404;42.656;23.336;2024-03-23T00:54:33;94828.47;;;2.34;68.18
10706;BME280;5404;42.656;23.336;2024-03-23T00:56:58;94837.91;;;2.28;68.09
10706;BME280;5404;42.656;23.336;2024-03-23T00:59:24;94841.00;;;2.26;68.31
10706;BME280;5404;42.656;23.336;2024-03-23T01:01:53;94845.16;;;2.24;68.82
10706;BME280;5404;42.656;23.336;2024-03-23T01:04:19;94826.22;;;2.17;68.13
10706;BME280;5404;42.656;23.336;2024-03-23T01:06:44;94833.13;;;2.18;68.24
10706;BME280;5404;42.656;23.336;2024-03-23T01:09:10;94830.19;;;2.04;68.14
10706;BME280;5404;42.656;23.336;2024-03-23T01:11:36;94835.59;;;2.07;68.70
10706;BME280;5404;42.656;23.336;2024-03-23T01:14:02;94833.66;;;2.04;68.99
10706;BME280;5404;42.656;23.336;2024-03-23T01:16:27;94809.09;;;1.86;69.25
10706;BME280;5404;42.656;23.336;2024-03-23T01:18:53;94833.50;;;1.97;69.31
10706;BME280;5404;42.656;23.336;2024-03-23T01:21:18;94825.84;;;1.99;69.53
10706;BME280;5404;42.656;23.336;2024-03-23T01:23:44;94823.47;;;1.94;69.52
10706;BME280;5404;42.656;23.336;2024-03-23T01:26:10;94831.75;;;2.05;69.87
10706;BME280;5404;42.656;23.336;2024-03-23T01:28:35;94833.50;;;1.97;69.48
10706;BME280;5404;42.656;23.336;2024-03-23T01:31:00;94823.31;;;1.87;69.43
10706;BME280;5404;42.656;23.336;2024-03-23T01:33:26;94834.50;;;1.89;70.04
10706;BME280;5404;42.656;23.336;2024-03-23T01:35:51;94771.06;;;1.46;69.87
10706;BME280;5404;42.656;23.336;2024-03-23T01:38:17;94830.78;;;1.78;69.49
10706;BME280;5404;42.656;23.336;2024-03-23T01:40:42;94836.88;;;1.75;69.94
10706;BME280;5404;42.656;23.336;2024-03-23T01:43:08;94832.34;;;1.79;69.67
10706;BME280;5404;42.656;23.336;2024-03-23T01:45:34;94824.66;;;1.77;69.91
10706;BME280;5404;42.656;23.336;2024-03-23T01:48:00;94826.16;;;1.75;69.34
10706;BME280;5404;42.656;23.336;2024-03-23T01:50:26;94824.53;;;1.70;69.94
10706;BME280;5404;42.656;23.336;2024-03-23T01:52:53;94755.31;;;1.25;69.89
10706;BME280;5404;42.656;23.336;2024-03-23T01:55:18;94791.56;;;1.54;69.66
10706;BME280;5404;42.656;23.336;2024-03-23T01:57:44;94831.84;;;1.54;70.17
10706;BME280;5404;42.656;23.336;2024-03-23T02:00:10;94830.78;;;1.58;70.28
10706;BME280;5404;42.656;23.336;2024-03-23T02:02:46;94774.53;;;1.27;69.79
10706;BME280;5404;42.656;23.336;2024-03-23T02:05:12;94826.34;;;1.47;70.65
10706;BME280;5404;42.656;23.336;2024-03-23T02:07:39;94822.00;;;1.42;71.22
10706;BME280;5404;42.656;23.336;2024-03-23T02:10:09;94826.91;;;1.56;71.20
10706;BME280;5404;42.656;23.336;2024-03-23T02:12:35;94834.34;;;1.63;70.77
10706;BME280;5404;42.656;23.336;2024-03-23T02:15:01;94831.44;;;1.71;70.40
10706;BME280;5404;42.656;23.336;2024-03-23T02:17:27;94832.94;;;1.69;70.84
10706;BME280;5404;42.656;23.336;2024-03-23T02:19:53;94833.56;;;1.62;70.42
10706;BME280;5404;42.656;23.336;2024-03-23T02:22:18;94836.50;;;1.57;70.46
10706;BME280;5404;42.656;23.336;2024-03-23T02:24:44;94829.69;;;1.44;70.18
10706;BME280;5404;42.656;23.336;2024-03-23T02:27:10;94839.94;;;1.38;70.35
10706;BME280;5404;42.656;23.336;2024-03-23T02:29:37;94827.50;;;1.30;70.95
10706;BME280;5404;42.656;23.336;2024-03-23T02:32:02;94838.66;;;1.32;70.83
10706;BME280;5404;42.656;23.336;2024-03-23T02:34:28;94839.44;;;1.33;70.22
10706;BME280;5404;42.656;23.336;2024-03-23T02:36:53;94841.34;;;1.32;70.50
10706;BME280;5404;42.656;23.336;2024-03-23T02:39:19;94841.97;;;1.26;70.78
10706;BME280;5404;42.656;23.336;2024-03-23T02:41:44;94824.84;;;1.14;70.71
10706;BME280;5404;42.656;23.336;2024-03-23T02:44:10;94833.66;;;1.15;70.76
10706;BME280;5404;42.656;23.336;2024-03-23T02:46:38;94813.59;;;0.93;71.21
10706;BME280;5404;42.656;23.336;2024-03-23T02:49:03;94835.94;;;1.13;71.35
10706;BME280;5404;42.656;23.336;2024-03-23T02:51:30;94835.31;;;1.20;71.46
10706;BME280;5404;42.656;23.336;2024-03-23T02:53:55;94824.22;;;1.21;71.30
10706;BME280;5404;42.656;23.336;2024-03-23T02:56:21;94823.03;;;1.18;71.14
10706;BME280;5404;42.656;23.336;2024-03-23T02:58:46;94831.13;;;1.22;70.89
10706;BME280;5404;42.656;23.336;2024-03-23T03:01:12;94820.34;;;1.18;71.08
10706;BME280;5404;42.656;23.336;2024-03-23T03:03:37;94826.56;;;1.23;71.19
10706;BME280;5404;42.656;23.336;2024-03-23T03:06:03;94818.34;;;1.15;71.36
10706;BME280;5404;42.656;23.336;2024-03-23T03:08:28;94821.34;;;1.30;70.66
10706;BME280;5404;42.656;23.336;2024-03-23T03:10:54;94818.94;;;1.25;70.90
10706;BME280;5404;42.656;23.336;2024-03-23T03:13:20;94819.41;;;1.11;71.12
10706;BME280;5404;42.656;23.336;2024-03-23T03:15:45;94820.25;;;1.15;70.88
10706;BME280;5404;42.656;23.336;2024-03-23T03:18:10;94830.47;;;1.09;71.38
10706;BME280;5404;42.656;23.336;2024-03-23T03:20:39;94821.81;;;1.00;70.82
10706;BME280;5404;42.656;23.336;2024-03-23T03:23:05;94830.06;;;0.92;71.66
10706;BME280;5404;42.656;23.336;2024-03-23T03:25:30;94834.66;;;0.91;71.56
10706;BME280;5404;42.656;23.336;2024-03-23T03:27:55;94835.78;;;0.90;71.43
10706;BME280;5404;42.656;23.336;2024-03-23T03:30:21;94837.25;;;0.88;72.04
10706;BME280;5404;42.656;23.336;2024-03-23T03:32:46;94841.16;;;0.90;71.59
10706;BME280;5404;42.656;23.336;2024-03-23T03:35:12;94830.91;;;0.96;71.44
10706;BME280;5404;42.656;23.336;2024-03-23T03:37:37;94824.34;;;0.93;71.53
10706;BME280;5404;42.656;23.336;2024-03-23T03:40:03;94823.16;;;0.91;71.42
10706;BME280;5404;42.656;23.336;2024-03-23T03:42:28;94835.50;;;0.95;71.86
10706;BME280;5404;42.656;23.336;2024-03-23T03:44:54;94835.94;;;0.97;71.54
10706;BME280;5404;42.656;23.336;2024-03-23T03:47:19;94831.53;;;0.89;71.81
10706;BME280;5404;42.656;23.336;2024-03-23T03:49:45;94833.78;;;0.87;71.51
10706;BME280;5404;42.656;23.336;2024-03-23T03:52:10;94847.97;;;0.88;71.94
10706;BME280;5404;42.656;23.336;2024-03-23T03:54:36;94824.44;;;0.81;71.76
10706;BME280;5404;42.656;23.336;2024-03-23T03:57:01;94827.03;;;0.93;71.85
10706;BME280;5404;42.656;23.336;2024-03-23T03:59:27;94838.28;;;0.83;72.02
10706;BME280;5404;42.656;23.336;2024-03-23T04:01:52;94834.72;;;0.79;71.30
10706;BME280;5404;42.656;23.336;2024-03-23T04:04:18;94837.41;;;0.79;72.25
10706;BME280;5404;42.656;23.336;2024-03-23T04:06:43;94837.78;;;0.77;72.14
10706;BME280;5404;42.656;23.336;2024-03-23T04:09:09;94835.34;;;0.72;71.88
10706;BME280;5404;42.656;23.336;2024-03-23T04:11:35;94839.50;;;0.70;71.99
10706;BME280;5404;42.656;23.336;2024-03-23T04:14:00;94840.69;;;0.72;72.02
10706;BME280;5404;42.656;23.336;2024-03-23T04:16:33;94813.38;;;0.51;71.87
10706;BME280;5404;42.656;23.336;2024-03-23T04:18:58;94844.44;;;0.68;71.93
10706;BME280;5404;42.656;23.336;2024-03-23T04:21:24;94836.47;;;0.56;71.77
10706;BME280;5404;42.656;23.336;2024-03-23T04:23:49;94841.06;;;0.55;71.94
10706;BME280;5404;42.656;23.336;2024-03-23T04:26:15;94814.13;;;0.36;71.87
10706;BME280;5404;42.656;23.336;2024-03-23T04:28:41;94831.78;;;0.53;71.94
10706;BME280;5404;42.656;23.336;2024-03-23T04:31:06;94837.25;;;0.56;71.93
10706;BME280;5404;42.656;23.336;2024-03-23T04:33:32;94839.16;;;0.56;71.78
10706;BME280;5404;42.656;23.336;2024-03-23T04:35:57;94851.84;;;0.59;71.75
10706;BME280;5404;42.656;23.336;2024-03-23T04:38:22;94850.03;;;0.47;71.99
10706;BME280;5404;42.656;23.336;2024-03-23T04:40:58;94851.94;;;0.47;72.31
10706;BME280;5404;42.656;23.336;2024-03-23T04:43:24;94848.75;;;0.57;71.97
10706;BME280;5404;42.656;23.336;2024-03-23T04:45:50;94852.75;;;0.63;72.34
10706;BME280;5404;42.656;23.336;2024-03-23T04:48:15;94852.53;;;0.71;72.26
10706;BME280;5404;42.656;23.336;2024-03-23T04:50:41;94852.22;;;0.73;71.93
10706;BME280;5404;42.656;23.336;2024-03-23T04:53:07;94864.50;;;0.74;71.98
10706;BME280;5404;42.656;23.336;2024-03-23T04:55:33;94863.53;;;0.82;72.03
10706;BME280;5404;42.656;23.336;2024-03-23T04:57:58;94858.63;;;0.84;71.37
10706;BME280;5404;42.656;23.336;2024-03-23T05:00:24;94862.78;;;0.97;71.39
10706;BME280;5404;42.656;23.336;2024-03-23T05:02:50;94860.44;;;0.96;71.12
10706;BME280;5404;42.656;23.336;2024-03-23T05:05:15;94859.22;;;0.93;71.01
10706;BME280;5404;42.656;23.336;2024-03-23T05:07:41;94856.69;;;1.00;70.95
10706;BME280;5404;42.656;23.336;2024-03-23T05:10:08;94853.50;;;1.10;70.96
10706;BME280;5404;42.656;23.336;2024-03-23T05:12:39;94857.91;;;1.18;71.15
10706;BME280;5404;42.656;23.336;2024-03-23T05:15:05;94856.50;;;1.25;70.90
10706;BME280;5404;42.656;23.336;2024-03-23T05:17:32;94855.88;;;1.31;71.02
10706;BME280;5404;42.656;23.336;2024-03-23T05:19:57;94809.00;;;1.09;70.59
10706;BME280;5404;42.656;23.336;2024-03-23T05:22:23;94853.03;;;1.59;70.44
10706;BME280;5404;42.656;23.336;2024-03-23T05:24:48;94847.47;;;1.68;69.62
10706;BME280;5404;42.656;23.336;2024-03-23T05:27:14;94841.47;;;1.74;70.35
10706;BME280;5404;42.656;23.336;2024-03-23T05:29:40;94844.75;;;1.83;69.28
10706;BME280;5404;42.656;23.336;2024-03-23T05:32:05;94842.59;;;1.92;69.38
10706;BME280;5404;42.656;23.336;2024-03-23T05:34:31;94839.66;;;1.98;69.13
10706;BME280;5404;42.656;23.336;2024-03-23T05:36:57;94840.47;;;2.21;69.33
10706;BME280;5404;42.656;23.336;2024-03-23T05:39:22;94825.44;;;2.16;68.78
10706;BME280;5404;42.656;23.336;2024-03-23T05:41:48;94844.16;;;2.32;68.03
10706;BME280;5404;42.656;23.336;2024-03-23T05:44:13;94841.66;;;2.43;67.99
10706;BME280;5404;42.656;23.336;2024-03-23T05:46:40;94848.38;;;2.52;66.71
10706;BME280;5404;42.656;23.336;2024-03-23T05:49:06;94841.69;;;2.65;66.74
10706;BME280;5404;42.656;23.336;2024-03-23T05:51:31;94839.47;;;2.71;66.14
10706;BME280;5404;42.656;23.336;2024-03-23T05:53:57;94846.16;;;2.81;65.67
10706;BME280;5404;42.656;23.336;2024-03-23T05:56:22;94850.13;;;2.87;65.46
10706;BME280;5404;42.656;23.336;2024-03-23T05:58:48;94833.63;;;2.88;66.11
10706;BME280;5404;42.656;23.336;2024-03-23T06:01:13;94845.31;;;2.99;65.45
10706;BME280;5404;42.656;23.336;2024-03-23T06:03:39;94841.59;;;3.07;64.55
10706;BME280;5404;42.656;23.336;2024-03-23T06:06:04;94846.31;;;3.14;64.12
10706;BME280;5404;42.656;23.336;2024-03-23T06:08:35;94841.03;;;3.21;64.89
10706;BME280;5404;42.656;23.336;2024-03-23T06:11:01;94821.81;;;3.19;64.05
10706;BME280;5404;42.656;23.336;2024-03-23T06:13:26;94829.81;;;3.42;64.39
10706;BME280;5404;42.656;23.336;2024-03-23T06:15:55;94791.97;;;3.31;63.89
10706;BME280;5404;42.656;23.336;2024-03-23T06:18:20;94833.22;;;3.65;63.27
10706;BME280;5404;42.656;23.336;2024-03-23T06:20:46;94822.81;;;3.64;62.92
10706;BME280;5404;42.656;23.336;2024-03-23T06:23:11;94837.94;;;3.72;62.45
10706;BME280;5404;42.656;23.336;2024-03-23T06:25:38;94834.91;;;3.77;62.67
10706;BME280;5404;42.656;23.336;2024-03-23T06:28:03;94831.94;;;3.85;62.47
10706;BME280;5404;42.656;23.336;2024-03-23T06:30:29;94830.63;;;4.02;62.27
10706;BME280;5404;42.656;23.336;2024-03-23T06:32:55;94830.28;;;4.07;61.27
10706;BME280;5404;42.656;23.336;2024-03-23T06:35:20;94829.94;;;4.09;61.34
10706;BME280;5404;42.656;23.336;2024-03-23T06:37:46;94825.91;;;4.29;60.97
10706;BME280;5404;42.656;23.336;2024-03-23T06:40:11;94831.53;;;4.50;60.89
10706;BME280;5404;42.656;23.336;2024-03-23T06:42:37;94825.06;;;4.58;59.02
10706;BME280;5404;42.656;23.336;2024-03-23T06:45:03;94822.09;;;4.70;58.87
10706;BME280;5404;42.656;23.336;2024-03-23T06:47:30;94830.69;;;4.80;58.00
10706;BME280;5404;42.656;23.336;2024-03-23T06:49:55;94829.66;;;4.98;57.79
10706;BME280;5404;42.656;23.336;2024-03-23T06:52:21;94823.13;;;4.99;57.44
10706;BME280;5404;42.656;23.336;2024-03-23T06:54:46;94825.81;;;4.99;57.01
10706;BME280;5404;42.656;23.336;2024-03-23T06:57:12;94787.44;;;4.72;56.73
10706;BME280;5404;42.656;23.336;2024-03-23T06:59:38;94820.78;;;4.98;56.67
10706;BME280;5404;42.656;23.336;2024-03-23T07:02:05;94825.63;;;5.19;56.81
10706;BME280;5404;42.656;23.336;2024-03-23T07:04:30;94817.31;;;5.45;56.09
10706;BME280;5404;42.656;23.336;2024-03-23T07:06:55;94819.03;;;5.78;55.47
10706;BME280;5404;42.656;23.336;2024-03-23T07:09:21;94816.00;;;5.86;54.32
10706;BME280;5404;42.656;23.336;2024-03-23T07:11:50;94808.31;;;5.88;54.54
10706;BME280;5404;42.656;23.336;2024-03-23T07:14:15;94815.31;;;5.97;53.95
10706;BME280;5404;42.656;23.336;2024-03-23T07:16:41;94815.31;;;5.97;53.51
10706;BME280;5404;42.656;23.336;2024-03-23T07:19:06;94814.16;;;6.05;54.08
10706;BME280;5404;42.656;23.336;2024-03-23T07:21:32;94765.06;;;5.96;53.23
10706;BME280;5404;42.656;23.336;2024-03-23T07:23:57;94708.53;;;5.69;53.04
10706;BME280;5404;42.656;23.336;2024-03-23T07:26:22;94806.97;;;6.55;52.37
10706;BME280;5404;42.656;23.336;2024-03-23T07:28:48;94806.97;;;6.51;52.18
10706;BME280;5404;42.656;23.336;2024-03-23T07:31:14;94796.56;;;6.53;52.22
10706;BME280;5404;42.656;23.336;2024-03-23T07:33:45;94801.59;;;6.58;51.18
10706;BME280;5404;42.656;23.336;2024-03-23T07:36:11;94783.03;;;6.53;51.20
10706;BME280;5404;42.656;23.336;2024-03-23T07:38:36;94784.56;;;6.51;51.58
10706;BME280;5404;42.656;23.336;2024-03-23T07:41:15;94789.22;;;6.89;50.61
10706;BME280;5404;42.656;23.336;2024-03-23T07:43:42;94784.59;;;7.00;50.07
10706;BME280;5404;42.656;23.336;2024-03-23T07:46:08;94786.94;;;7.02;50.10
10706;BME280;5404;42.656;23.336;2024-03-23T07:48:34;94778.00;;;7.12;49.90
10706;BME280;5404;42.656;23.336;2024-03-23T07:51:00;94776.81;;;7.41;49.83
10706;BME280;5404;42.656;23.336;2024-03-23T07:53:26;94770.97;;;7.61;48.80
10706;BME280;5404;42.656;23.336;2024-03-23T07:55:56;94777.16;;;7.68;48.56
10706;BME280;5404;42.656;23.336;2024-03-23T07:58:22;94726.84;;;7.50;47.58
10706;BME280;5404;42.656;23.336;2024-03-23T08:00:47;94757.31;;;7.89;47.36
10706;BME280;5404;42.656;23.336;2024-03-23T08:03:13;94770.09;;;7.99;48.02
10706;BME280;5404;42.656;23.336;2024-03-23T08:05:38;94775.88;;;8.08;47.20
10706;BME280;5404;42.656;23.336;2024-03-23T08:08:04;94778.88;;;8.24;48.08
10706;BME280;5404;42.656;23.336;2024-03-23T08:10:29;94768.75;;;8.43;47.71
10706;BME280;5404;42.656;23.336;2024-03-23T08:12:57;94775.69;;;8.51;47.21
10706;BME280;5404;42.656;23.336;2024-03-23T08:15:22;94743.13;;;8.47;47.24
10706;BME280;5404;42.656;23.336;2024-03-23T08:17:48;94764.75;;;8.65;45.96
10706;BME280;5404;42.656;23.336;2024-03-23T08:20:14;94768.09;;;8.87;46.57
10706;BME280;5404;42.656;23.336;2024-03-23T08:22:39;94767.63;;;8.95;46.84
10706;BME280;5404;42.656;23.336;2024-03-23T08:25:05;94769.09;;;9.07;45.76
10706;BME280;5404;42.656;23.336;2024-03-23T08:27:31;94764.25;;;9.29;46.30
10706;BME280;5404;42.656;23.336;2024-03-23T08:29:56;94758.88;;;9.22;45.95
10706;BME280;5404;42.656;23.336;2024-03-23T08:32:22;94758.38;;;9.34;45.51
10706;BME280;5404;42.656;23.336;2024-03-23T08:34:47;94756.69;;;9.47;45.38
10706;BME280;5404;42.656;23.336;2024-03-23T08:37:12;94715.78;;;9.17;44.65
10706;BME280;5404;42.656;23.336;2024-03-23T08:39:38;94755.50;;;9.52;45.22
10706;BME280;5404;42.656;23.336;2024-03-23T08:42:03;94716.59;;;9.55;43.71
10706;BME280;5404;42.656;23.336;2024-03-23T08:44:29;94741.81;;;9.59;43.54
10706;BME280;5404;42.656;23.336;2024-03-23T08:46:57;94741.38;;;9.64;44.18
10706;BME280;5404;42.656;23.336;2024-03-23T08:49:24;94739.50;;;9.91;43.94
10706;BME280;5404;42.656;23.336;2024-03-23T08:51:49;94733.41;;;10.14;43.07
10706;BME280;5404;42.656;23.336;2024-03-23T08:54:15;94737.75;;;10.08;42.72
10706;BME280;5404;42.656;23.336;2024-03-23T08:56:40;94732.59;;;10.17;42.48
10706;BME280;5404;42.656;23.336;2024-03-23T08:59:05;94724.31;;;10.28;43.01
10706;BME280;5404;42.656;23.336;2024-03-23T09:01:31;94728.44;;;10.39;42.20
10706;BME280;5404;42.656;23.336;2024-03-23T09:03:56;94715.84;;;10.76;41.58
10706;BME280;5404;42.656;23.336;2024-03-23T09:06:21;94720.72;;;11.11;40.94
10706;BME280;5404;42.656;23.336;2024-03-23T09:08:47;94689.53;;;11.12;39.63
10706;BME280;5404;42.656;23.336;2024-03-23T09:11:13;94699.25;;;11.99;39.39
10706;BME280;5404;42.656;23.336;2024-03-23T09:13:39;94696.81;;;13.99;36.07
10706;BME280;5404;42.656;23.336;2024-03-23T09:16:05;94687.97;;;16.34;32.04
10706;BME280;5404;42.656;23.336;2024-03-23T09:18:35;94686.03;;;18.00;29.52
10706;BME280;5404;42.656;23.336;2024-03-23T09:21:01;94678.84;;;19.86;27.38
10706;BME280;5404;42.656;23.336;2024-03-23T09:23:27;94657.81;;;20.18;26.29
10706;BME280;5404;42.656;23.336;2024-03-23T09:25:52;94674.34;;;19.74;26.53
10706;BME280;5404;42.656;23.336;2024-03-23T09:28:17;94672.38;;;19.41;26.85
10706;BME280;5404;42.656;23.336;2024-03-23T09:30:43;94666.41;;;19.67;26.43
10706;BME280;5404;42.656;23.336;2024-03-23T09:33:09;94666.81;;;19.74;26.59
10706;BME280;5404;42.656;23.336;2024-03-23T09:35:42;94652.69;;;21.74;24.67
10706;BME280;5404;42.656;23.336;2024-03-23T09:38:08;94648.16;;;21.16;24.31
10706;BME280;5404;42.656;23.336;2024-03-23T09:40:35;94649.38;;;20.36;25.01
10706;BME280;5404;42.656;23.336;2024-03-23T09:43:00;94647.63;;;20.24;24.73
10706;BME280;5404;42.656;23.336;2024-03-23T09:45:29;94615.84;;;20.63;24.72
10706;BME280;5404;42.656;23.336;2024-03-23T09:47:55;94635.41;;;22.31;22.94
10706;BME280;5404;42.656;23.336;2024-03-23T09:50:20;94635.38;;;21.59;23.19
10706;BME280;5404;42.656;23.336;2024-03-23T09:52:46;94612.47;;;22.62;22.27
10706;BME280;5404;42.656;23.336;2024-03-23T09:55:12;94624.91;;;23.40;21.66
10706;BME280;5404;42.656;23.336;2024-03-23T09:57:39;94620.78;;;22.31;22.23
10706;BME280;5404;42.656;23.336;2024-03-23T10:00:05;94621.66;;;21.50;22.92
10706;BME280;5404;42.656;23.336;2024-03-23T10:02:31;94615.81;;;23.03;21.87
10706;BME280;5404;42.656;23.336;2024-03-23T10:04:57;94603.25;;;24.59;20.19
10706;BME280;5404;42.656;23.336;2024-03-23T10:07:22;94610.78;;;22.70;21.88
10706;BME280;5404;42.656;23.336;2024-03-23T10:09:48;94607.75;;;23.48;21.43
10706;BME280;5404;42.656;23.336;2024-03-23T10:12:17;94592.34;;;23.52;21.23
10706;BME280;5404;42.656;23.336;2024-03-23T10:14:43;94599.88;;;21.43;23.05
10706;BME280;5404;42.656;23.336;2024-03-23T10:17:16;94578.50;;;22.47;22.48
10706;BME280;5404;42.656;23.336;2024-03-23T10:19:49;94579.75;;;23.09;22.11
10706;BME280;5404;42.656;23.336;2024-03-23T10:22:22;94567.34;;;22.10;22.80
10706;BME280;5404;42.656;23.336;2024-03-23T10:24:48;94580.47;;;21.89;22.84
10706;BME280;5404;42.656;23.336;2024-03-23T10:27:18;94575.38;;;21.62;23.07
10706;BME280;5404;42.656;23.336;2024-03-23T10:29:48;94562.31;;;21.42;23.23
10706;BME280;5404;42.656;23.336;2024-03-23T10:32:14;94562.84;;;22.44;22.23
10706;BME280;5404;42.656;23.336;2024-03-23T10:34:41;94564.13;;;21.45;23.27
10706;BME280;5404;42.656;23.336;2024-03-23T10:37:07;94556.25;;;23.74;21.62
10706;BME280;5404;42.656;23.336;2024-03-23T10:39:34;94553.44;;;23.58;21.62
10706;BME280;5404;42.656;23.336;2024-03-23T10:42:05;94534.31;;;21.86;23.11
10706;BME280;5404;42.656;23.336;2024-03-23T10:44:31;94544.22;;;20.07;25.32
10706;BME280;5404;42.656;23.336;2024-03-23T10:46:58;94535.50;;;22.68;22.37
10706;BME280;5404;42.656;23.336;2024-03-23T10:49:34;94536.22;;;23.00;21.58
10706;BME280;5404;42.656;23.336;2024-03-23T10:52:02;94497.47;;;22.43;21.87
10706;BME280;5404;42.656;23.336;2024-03-23T10:54:30;94519.81;;;23.61;21.08
10706;BME280;5404;42.656;23.336;2024-03-23T10:57:30;94502.94;;;23.93;20.20
10706;BME280;5404;42.656;23.336;2024-03-23T10:59:59;94498.00;;;23.37;20.46
10706;BME280;5404;42.656;23.336;2024-03-23T11:02:27;94499.72;;;23.29;20.28
10706;BME280;5404;42.656;23.336;2024-03-23T11:04:53;94495.88;;;24.53;19.77
10706;BME280;5404;42.656;23.336;2024-03-23T11:07:30;94490.03;;;24.62;19.83
10706;BME280;5404;42.656;23.336;2024-03-23T11:09:56;94485.38;;;19.91;24.97
10706;BME280;5404;42.656;23.336;2024-03-23T11:14:52;94463.41;;;24.67;19.51
10706;BME280;5404;42.656;23.336;2024-03-23T11:17:18;94457.13;;;23.71;20.30
10706;BME280;5404;42.656;23.336;2024-03-23T11:19:44;94465.00;;;24.01;20.44
10706;BME280;5404;42.656;23.336;2024-03-23T11:22:09;94453.34;;;23.86;19.75
10706;BME280;5404;42.656;23.336;2024-03-23T11:24:35;94452.06;;;23.81;20.01
10706;BME280;5404;42.656;23.336;2024-03-23T11:27:01;94451.06;;;23.73;20.26
10706;BME280;5404;42.656;23.336;2024-03-23T11:29:29;94459.31;;;21.49;22.23
10706;BME280;5404;42.656;23.336;2024-03-23T11:31:55;94433.97;;;21.62;22.03
10706;BME280;5404;42.656;23.336;2024-03-23T11:34:21;94453.59;;;22.52;20.98
10706;BME280;5404;42.656;23.336;2024-03-23T11:36:47;94440.59;;;23.40;20.58
10706;BME280;5404;42.656;23.336;2024-03-23T11:41:55;94433.59;;;20.27;23.35
10706;BME280;5404;42.656;23.336;2024-03-23T11:44:22;94436.09;;;22.78;21.29
10706;BME280;5404;42.656;23.336;2024-03-23T11:46:48;94425.34;;;22.59;21.52
10706;BME280;5404;42.656;23.336;2024-03-23T11:49:27;94417.44;;;22.95;20.97
10706;BME280;5404;42.656;23.336;2024-03-23T11:51:54;94417.28;;;22.61;21.17
10706;BME280;5404;42.656;23.336;2024-03-23T11:54:24;94408.03;;;21.39;22.60
10706;BME280;5404;42.656;23.336;2024-03-23T11:57:03;94401.06;;;22.06;22.22
10706;BME280;5404;42.656;23.336;2024-03-23T11:59:39;94398.56;;;21.45;22.49
10706;BME280;5404;42.656;23.336;2024-03-23T12:02:07;94394.31;;;19.00;24.89
10706;BME280;5404;42.656;23.336;2024-03-23T12:04:32;94398.50;;;17.16;27.67
10706;BME280;5404;42.656;23.336;2024-03-23T12:07:11;94396.06;;;18.02;26.71
10706;BME280;5404;42.656;23.336;2024-03-23T12:09:37;94377.41;;;17.97;26.42
10706;BME280;5404;42.656;23.336;2024-03-23T12:12:11;94387.25;;;15.92;28.64
10706;BME280;5404;42.656;23.336;2024-03-23T12:14:40;94369.44;;;16.15;29.09
10706;BME280;5404;42.656;23.336;2024-03-23T12:17:13;94374.69;;;16.86;28.13
10706;BME280;5404;42.656;23.336;2024-03-23T12:19:39;94378.19;;;16.50;28.85
10706;BME280;5404;42.656;23.336;2024-03-23T12:22:05;94369.50;;;16.78;27.88
10706;BME280;5404;42.656;23.336;2024-03-23T12:24:32;94367.31;;;16.92;27.90
10706;BME280;5404;42.656;23.336;2024-03-23T12:27:04;94327.31;;;16.63;28.11
10706;BME280;5404;42.656;23.336;2024-03-23T12:29:30;94363.06;;;16.81;28.15
10706;BME280;5404;42.656;23.336;2024-03-23T12:31:59;94355.41;;;17.04;27.85
10706;BME280;5404;42.656;23.336;2024-03-23T12:34:25;94350.41;;;16.66;27.61
10706;BME280;5404;42.656;23.336;2024-03-23T12:36:51;94345.31;;;16.00;28.37
10706;BME280;5404;42.656;23.336;2024-03-23T12:39:16;94341.16;;;15.87;28.01
10706;BME280;5404;42.656;23.336;2024-03-23T12:41:42;94335.56;;;16.72;27.44
10706;BME280;5404;42.656;23.336;2024-03-23T12:44:07;94337.34;;;17.03;27.01
10706;BME280;5404;42.656;23.336;2024-03-23T12:46:36;94325.16;;;16.58;27.17
10706;BME280;5404;42.656;23.336;2024-03-23T12:49:02;94330.06;;;16.72;26.92
10706;BME280;5404;42.656;23.336;2024-03-23T12:51:27;94315.72;;;17.19;25.96
10706;BME280;5404;42.656;23.336;2024-03-23T12:53:53;94308.88;;;17.48;25.41
10706;BME280;5404;42.656;23.336;2024-03-23T12:56:18;94310.75;;;17.00;25.87
10706;BME280;5404;42.656;23.336;2024-03-23T12:58:44;94277.91;;;16.87;25.55
10706;BME280;5404;42.656;23.336;2024-03-23T13:01:09;94295.66;;;17.28;25.49
10706;BME280;5404;42.656;23.336;2024-03-23T13:03:35;94301.63;;;16.75;25.27
10706;BME280;5404;42.656;23.336;2024-03-23T13:06:00;94296.94;;;17.18;25.72
10706;BME280;5404;42.656;23.336;2024-03-23T13:08:25;94277.59;;;17.60;24.65
10706;BME280;5404;42.656;23.336;2024-03-23T13:10:54;94280.16;;;18.35;23.61
10706;BME280;5404;42.656;23.336;2024-03-23T13:13:20;94280.59;;;18.57;23.64
10706;BME280;5404;42.656;23.336;2024-03-23T13:15:52;94279.25;;;18.53;23.38
10706;BME280;5404;42.656;23.336;2024-03-23T13:18:17;94258.56;;;17.95;23.89
10706;BME280;5404;42.656;23.336;2024-03-23T13:20:43;94267.25;;;17.13;24.12
10706;BME280;5404;42.656;23.336;2024-03-23T13:23:09;94268.66;;;17.98;24.19
10706;BME280;5404;42.656;23.336;2024-03-23T13:25:34;94259.91;;;17.52;23.75
10706;BME280;5404;42.656;23.336;2024-03-23T13:28:00;94267.44;;;17.75;23.86
10706;BME280;5404;42.656;23.336;2024-03-23T13:30:26;94251.84;;;18.49;22.44
10706;BME280;5404;42.656;23.336;2024-03-23T13:32:51;94243.03;;;18.60;20.96
10706;BME280;5404;42.656;23.336;2024-03-23T13:35:17;94216.56;;;18.53;20.62
10706;BME280;5404;42.656;23.336;2024-03-23T13:37:43;94241.59;;;18.64;20.67
10706;BME280;5404;42.656;23.336;2024-03-23T13:40:09;94222.19;;;18.59;21.34
10706;BME280;5404;42.656;23.336;2024-03-23T13:42:34;94218.28;;;18.12;21.75
10706;BME280;5404;42.656;23.336;2024-03-23T13:45:00;94232.38;;;18.14;21.31
10706;BME280;5404;42.656;23.336;2024-03-23T13:47:25;94232.41;;;18.29;20.78
10706;BME280;5404;42.656;23.336;2024-03-23T13:49:50;94227.41;;;18.57;20.69
10706;BME280;5404;42.656;23.336;2024-03-23T13:52:16;94199.38;;;18.20;20.59
10706;BME280;5404;42.656;23.336;2024-03-23T13:54:43;94230.00;;;17.83;20.70
10706;BME280;5404;42.656;23.336;2024-03-23T13:57:11;94223.66;;;18.30;21.33
10706;BME280;5404;42.656;23.336;2024-03-23T13:59:37;94226.66;;;18.86;21.02